createdAt,value
2022-09-20T00:00:06.909Z,2.90
2022-09-20T00:06:18.208Z,3.22
2022-09-20T00:12:31.259Z,3.87
2022-09-20T00:18:46.035Z,3.80
2022-09-20T00:25:00.270Z,3.25
2022-09-20T00:31:11.515Z,4.50
2022-09-20T00:37:21.319Z,4.97
2022-09-20T00:43:43.061Z,3.67
2022-09-20T00:49:55.394Z,3.95
2022-09-20T00:56:05.711Z,3.65
2022-09-20T01:02:21.013Z,3.62
2022-09-20T01:08:34.081Z,4.17
2022-09-20T01:14:45.210Z,4.08
2022-09-20T01:20:56.882Z,4.00
2022-09-20T01:27:14.166Z,3.02
2022-09-20T01:33:27.864Z,2.42
2022-09-20T01:39:42.648Z,3.80
2022-09-20T01:45:53.608Z,3.47
2022-09-20T01:52:42.719Z,3.42
2022-09-20T01:59:32.188Z,4.17
2022-09-20T02:06:15.798Z,3.52
2022-09-20T02:12:37.517Z,3.90
2022-09-20T02:18:59.411Z,4.15
2022-09-20T02:25:15.674Z,4.00
2022-09-20T02:31:34.488Z,4.03
2022-09-20T02:38:04.564Z,3.70
2022-09-20T02:44:17.316Z,3.20
2022-09-20T02:50:35.062Z,2.58
2022-09-20T02:56:51.726Z,3.27
2022-09-20T03:03:09.151Z,3.15
2022-09-20T03:09:25.666Z,3.33
2022-09-20T03:15:43.134Z,3.27
2022-09-20T03:22:00.762Z,2.65
2022-09-20T03:28:19.311Z,3.80
2022-09-20T03:34:35.793Z,3.25
2022-09-20T03:47:46.189Z,3.67
2022-09-20T03:54:32.050Z,2.70
2022-09-20T04:00:49.111Z,3.03
2022-09-20T04:07:10.737Z,3.12
2022-09-20T04:13:40.417Z,2.98
2022-09-20T04:19:56.992Z,3.85
2022-09-20T04:26:06.884Z,3.77
2022-09-20T04:32:23.205Z,3.47
2022-09-20T04:38:37.155Z,4.35
2022-09-20T04:45:13.176Z,3.52
2022-09-20T04:58:52.054Z,3.30
2022-09-20T05:05:42.683Z,3.47
2022-09-20T05:12:33.747Z,3.83
2022-09-20T05:19:12.292Z,3.72
2022-09-20T05:26:00.349Z,3.02
2022-09-20T05:32:13.694Z,3.37
2022-09-20T05:38:26.675Z,3.20
2022-09-20T05:44:46.989Z,4.05
2022-09-20T05:51:03.731Z,3.67
2022-09-20T05:57:24.572Z,3.27
2022-09-20T06:03:39.067Z,2.90
2022-09-20T06:09:54.794Z,4.08
2022-09-20T06:16:05.931Z,3.45
2022-09-20T06:22:22.072Z,3.60
2022-09-20T06:34:39.610Z,2.72
2022-09-20T06:41:06.774Z,3.85
2022-09-20T06:47:20.131Z,3.95
2022-09-20T06:53:34.178Z,3.00
2022-09-20T06:59:45.655Z,4.05
2022-09-20T07:05:58.871Z,3.65
2022-09-20T07:12:10.071Z,3.08
2022-09-20T07:18:22.466Z,4.15
2022-09-20T07:24:32.882Z,3.45
2022-09-20T07:30:47.777Z,3.65
2022-09-20T07:37:03.103Z,3.60
2022-09-20T07:43:14.082Z,4.13
2022-09-20T07:49:27.021Z,3.58
2022-09-20T07:55:36.342Z,3.60
2022-09-20T08:01:50.538Z,4.92
2022-09-20T08:08:03.720Z,4.47
2022-09-20T08:14:13.151Z,3.27
2022-09-20T08:20:24.034Z,4.00
2022-09-20T08:26:36.392Z,4.40
2022-09-20T08:32:46.571Z,4.08
2022-09-20T08:45:09.379Z,4.10
2022-09-20T08:51:22.922Z,4.17
2022-09-20T08:57:35.452Z,4.10
2022-09-20T09:03:49.785Z,4.08
2022-09-20T09:10:01.007Z,4.95
2022-09-20T09:16:15.513Z,3.47
2022-09-20T09:22:25.316Z,3.47
2022-09-20T09:28:38.655Z,4.42
2022-09-20T09:34:49.676Z,4.33
2022-09-20T09:41:02.909Z,3.83
2022-09-20T09:47:25.398Z,4.20
2022-09-20T09:53:39.609Z,4.67
2022-09-20T09:59:56.736Z,4.17
2022-09-20T10:06:12.178Z,3.62
2022-09-20T10:12:30.041Z,3.37
2022-09-20T10:18:47.263Z,4.37
2022-09-20T10:25:01.910Z,3.90
2022-09-20T10:31:14.081Z,4.33
2022-09-20T10:37:28.065Z,3.55
2022-09-20T10:43:44.268Z,3.83
2022-09-20T10:50:00.128Z,4.00
2022-09-20T10:56:17.767Z,3.42
2022-09-20T11:09:14.176Z,3.53
2022-09-20T11:15:26.715Z,3.75
2022-09-20T11:21:40.787Z,4.05
2022-09-20T11:27:54.120Z,3.65
2022-09-20T11:34:07.809Z,3.92
2022-09-20T11:40:24.798Z,3.30
2022-09-20T11:46:37.498Z,3.70
2022-09-20T11:53:05.692Z,4.72
2022-09-20T11:59:21.288Z,3.15
2022-09-20T12:05:53.526Z,3.40
2022-09-20T12:12:03.649Z,2.87
2022-09-20T12:19:00.944Z,3.42
2022-09-20T12:25:42.447Z,3.35
2022-09-20T12:31:58.129Z,3.22
2022-09-20T12:38:25.440Z,2.72
2022-09-20T12:44:36.780Z,3.33
2022-09-20T12:51:06.024Z,2.02
2022-09-20T12:57:32.987Z,3.22
2022-09-20T13:03:43.134Z,3.22
2022-09-20T13:09:55.559Z,2.67
2022-09-20T13:16:06.840Z,2.95
2022-09-20T13:22:20.965Z,2.00
2022-09-20T13:28:38.906Z,2.52
2022-09-20T13:34:53.209Z,2.17
2022-09-20T13:41:11.610Z,1.92
2022-09-20T13:47:35.659Z,2.15
2022-09-20T13:53:47.555Z,2.65
2022-09-20T13:59:58.574Z,2.12
2022-09-20T14:06:09.011Z,1.87
2022-09-20T14:12:18.688Z,1.98
2022-09-20T14:18:32.956Z,2.30
2022-09-20T14:24:47.434Z,2.90
2022-09-20T14:30:59.100Z,1.92
2022-09-20T14:37:13.619Z,2.35
2022-09-20T14:43:33.718Z,2.75
2022-09-20T14:49:46.227Z,2.40
2022-09-20T14:56:05.105Z,2.40
2022-09-20T15:02:20.882Z,2.30
2022-09-20T15:08:32.865Z,1.85
2022-09-20T15:14:43.542Z,1.65
2022-09-20T15:20:54.174Z,2.40
2022-09-20T15:27:06.203Z,2.27
2022-09-20T15:33:16.975Z,1.45
2022-09-20T15:39:26.669Z,2.52
2022-09-20T15:45:40.152Z,2.17
2022-09-20T15:51:57.236Z,2.15
2022-09-20T15:58:06.970Z,2.15
2022-09-20T16:04:21.198Z,2.33
2022-09-20T16:10:33.291Z,2.27
2022-09-20T16:16:47.472Z,1.47
2022-09-20T16:22:57.992Z,1.35
2022-09-20T16:29:09.793Z,2.15
2022-09-20T16:35:23.791Z,1.98
2022-09-20T16:41:36.914Z,1.30
2022-09-20T16:47:49.979Z,2.02
2022-09-20T16:54:03.347Z,1.87
2022-09-20T17:00:18.579Z,2.02
2022-09-20T17:06:33.696Z,1.67
2022-09-20T17:12:45.994Z,2.03
2022-09-20T17:19:00.344Z,1.45
2022-09-20T17:25:12.169Z,1.95
2022-09-20T17:31:25.907Z,1.70
2022-09-20T17:37:38.654Z,1.52
2022-09-20T17:43:50.236Z,2.02
2022-09-20T17:50:02.141Z,1.47
2022-09-20T17:56:14.812Z,1.42
2022-09-20T18:02:25.996Z,1.67
2022-09-20T18:08:35.205Z,1.60
2022-09-20T18:14:49.708Z,1.90
2022-09-20T18:21:00.660Z,1.70
2022-09-20T18:27:11.853Z,1.95
2022-09-20T18:33:28.825Z,1.60
2022-09-20T18:39:40.680Z,1.90
2022-09-20T18:46:02.515Z,2.80
2022-09-20T18:52:14.746Z,3.25
2022-09-20T18:58:27.961Z,2.87
2022-09-20T19:05:13.972Z,2.75
2022-09-20T19:11:33.289Z,2.50
2022-09-20T19:17:53.381Z,2.42
2022-09-20T19:24:10.614Z,3.77
2022-09-20T19:30:28.108Z,3.33
2022-09-20T19:36:41.122Z,3.52
2022-09-20T19:42:58.020Z,3.37
2022-09-20T19:49:14.744Z,3.35
2022-09-20T19:55:30.101Z,4.00
2022-09-20T20:01:45.565Z,4.87
2022-09-20T20:07:59.171Z,5.95
2022-09-20T20:14:14.803Z,5.67
2022-09-20T20:20:32.950Z,4.22
2022-09-20T20:26:45.214Z,4.58
2022-09-20T20:32:59.015Z,4.03
2022-09-20T20:39:13.499Z,4.25
2022-09-20T20:45:23.805Z,5.62
2022-09-20T20:51:36.447Z,3.87
2022-09-20T20:57:50.776Z,5.30
2022-09-20T21:04:06.068Z,5.65
2022-09-20T21:10:19.576Z,5.53
2022-09-20T21:16:29.490Z,4.50
2022-09-20T21:22:38.997Z,5.67
2022-09-20T21:28:50.683Z,5.22
2022-09-20T21:35:01.716Z,6.72
2022-09-20T21:41:16.125Z,4.08
2022-09-20T21:47:29.580Z,5.67
2022-09-20T21:53:41.807Z,4.62
2022-09-20T21:59:53.538Z,4.35
2022-09-20T22:06:11.516Z,4.00
2022-09-20T22:12:24.935Z,3.83
2022-09-20T22:18:43.810Z,5.22
2022-09-20T22:24:58.166Z,4.20
2022-09-20T22:31:18.228Z,4.22
2022-09-20T22:37:27.752Z,5.22
2022-09-20T22:43:40.684Z,4.22
2022-09-20T22:49:50.853Z,4.58
2022-09-20T22:56:08.867Z,4.80
2022-09-20T23:02:19.602Z,4.35
2022-09-20T23:08:29.182Z,4.40
2022-09-20T23:14:40.312Z,3.95
2022-09-20T23:20:53.039Z,4.33
2022-09-20T23:27:06.174Z,4.85
2022-09-20T23:33:18.047Z,4.05
2022-09-20T23:39:30.880Z,5.22
2022-09-20T23:45:41.863Z,4.70
2022-09-20T23:51:53.059Z,4.72
2022-09-20T23:58:06.184Z,4.30
